sensor_id;sensor_type;location;lat;lon;timestamp;temperature;humidity
22787;DHT22;63134;52.020;4.714;2022-09-27T00:00:59;12.30;93.60
22787;DHT22;63134;52.020;4.714;2022-09-27T00:03:44;12.30;93.70
22787;DHT22;63134;52.020;4.714;2022-09-27T00:06:30;12.30;93.70
22787;DHT22;63134;52.020;4.714;2022-09-27T00:09:16;12.20;93.20
22787;DHT22;63134;52.020;4.714;2022-09-27T00:12:02;12.10;93.20
22787;DHT22;63134;52.020;4.714;2022-09-27T00:14:47;12.10;93.40
22787;DHT22;63134;52.020;4.714;2022-09-27T00:17:33;12.10;93.40
22787;DHT22;63134;52.020;4.714;2022-09-27T00:20:19;12.10;93.60
22787;DHT22;63134;52.020;4.714;2022-09-27T00:23:05;12.10;93.40
22787;DHT22;63134;52.020;4.714;2022-09-27T00:26:00;12.10;93.20
22787;DHT22;63134;52.020;4.714;2022-09-27T00:28:48;12.00;92.90
22787;DHT22;63134;52.020;4.714;2022-09-27T00:31:34;11.90;92.60
22787;DHT22;63134;52.020;4.714;2022-09-27T00:34:23;11.80;92.60
22787;DHT22;63134;52.020;4.714;2022-09-27T00:37:10;11.70;92.60
22787;DHT22;63134;52.020;4.714;2022-09-27T00:39:55;11.70;92.80
22787;DHT22;63134;52.020;4.714;2022-09-27T00:42:41;11.70;93.30
22787;DHT22;63134;52.020;4.714;2022-09-27T00:45:26;11.90;93.60
22787;DHT22;63134;52.020;4.714;2022-09-27T00:48:15;11.90;93.90
22787;DHT22;63134;52.020;4.714;2022-09-27T00:51:03;12.00;93.90
22787;DHT22;63134;52.020;4.714;2022-09-27T00:53:52;12.00;93.80
22787;DHT22;63134;52.020;4.714;2022-09-27T00:56:39;12.00;93.70
22787;DHT22;63134;52.020;4.714;2022-09-27T00:59:29;11.90;93.60
22787;DHT22;63134;52.020;4.714;2022-09-27T01:02:20;11.90;93.50
22787;DHT22;63134;52.020;4.714;2022-09-27T01:05:26;11.90;93.30
22787;DHT22;63134;52.020;4.714;2022-09-27T01:08:12;11.80;93.30
22787;DHT22;63134;52.020;4.714;2022-09-27T01:14:36;11.70;93.20
22787;DHT22;63134;52.020;4.714;2022-09-27T01:18:31;11.70;93.40
22787;DHT22;63134;52.020;4.714;2022-09-27T01:21:16;11.70;93.60
22787;DHT22;63134;52.020;4.714;2022-09-27T01:30:44;11.80;93.80
22787;DHT22;63134;52.020;4.714;2022-09-27T01:36:49;11.80;93.70
22787;DHT22;63134;52.020;4.714;2022-09-27T01:43:15;11.80;93.70
22787;DHT22;63134;52.020;4.714;2022-09-27T01:46:11;11.90;93.70
22787;DHT22;63134;52.020;4.714;2022-09-27T01:49:26;11.80;93.50
22787;DHT22;63134;52.020;4.714;2022-09-27T01:52:17;11.80;93.30
22787;DHT22;63134;52.020;4.714;2022-09-27T01:55:07;11.70;93.20
22787;DHT22;63134;52.020;4.714;2022-09-27T01:58:32;11.70;92.90
22787;DHT22;63134;52.020;4.714;2022-09-27T02:01:20;11.60;92.70
22787;DHT22;63134;52.020;4.714;2022-09-27T02:04:10;11.50;92.70
22787;DHT22;63134;52.020;4.714;2022-09-27T02:07:54;11.50;92.80
22787;DHT22;63134;52.020;4.714;2022-09-27T02:10:44;11.50;92.90
22787;DHT22;63134;52.020;4.714;2022-09-27T02:13:49;11.40;92.80
22787;DHT22;63134;52.020;4.714;2022-09-27T02:17:06;11.40;92.90
22787;DHT22;63134;52.020;4.714;2022-09-27T02:20:14;11.40;93.00
22787;DHT22;63134;52.020;4.714;2022-09-27T02:23:22;11.40;92.90
22787;DHT22;63134;52.020;4.714;2022-09-27T02:26:26;11.40;92.80
22787;DHT22;63134;52.020;4.714;2022-09-27T02:29:22;11.40;93.00
22787;DHT22;63134;52.020;4.714;2022-09-27T02:32:11;11.50;93.10
22787;DHT22;63134;52.020;4.714;2022-09-27T02:35:01;11.60;93.30
22787;DHT22;63134;52.020;4.714;2022-09-27T02:37:48;11.70;93.50
22787;DHT22;63134;52.020;4.714;2022-09-27T02:40:41;11.80;93.20
22787;DHT22;63134;52.020;4.714;2022-09-27T02:43:30;11.80;92.70
22787;DHT22;63134;52.020;4.714;2022-09-27T02:56:52;11.40;91.60
22787;DHT22;63134;52.020;4.714;2022-09-27T03:00:11;11.40;91.60
22787;DHT22;63134;52.020;4.714;2022-09-27T03:03:17;11.30;91.70
22787;DHT22;63134;52.020;4.714;2022-09-27T03:06:13;11.20;91.70
22787;DHT22;63134;52.020;4.714;2022-09-27T03:08:59;11.10;91.60
22787;DHT22;63134;52.020;4.714;2022-09-27T03:11:45;11.10;91.70
22787;DHT22;63134;52.020;4.714;2022-09-27T03:14:30;11.00;91.70
22787;DHT22;63134;52.020;4.714;2022-09-27T03:17:36;10.90;91.80
22787;DHT22;63134;52.020;4.714;2022-09-27T03:20:39;10.90;92.00
22787;DHT22;63134;52.020;4.714;2022-09-27T03:23:27;10.90;92.10
22787;DHT22;63134;52.020;4.714;2022-09-27T03:26:13;10.90;92.10
22787;DHT22;63134;52.020;4.714;2022-09-27T03:28:58;10.80;92.50
22787;DHT22;63134;52.020;4.714;2022-09-27T03:31:44;10.80;92.20
22787;DHT22;63134;52.020;4.714;2022-09-27T03:34:47;10.80;92.40
22787;DHT22;63134;52.020;4.714;2022-09-27T03:37:36;10.90;92.70
22787;DHT22;63134;52.020;4.714;2022-09-27T03:40:22;11.00;92.70
22787;DHT22;63134;52.020;4.714;2022-09-27T03:43:10;11.00;92.70
22787;DHT22;63134;52.020;4.714;2022-09-27T03:45:55;11.00;92.70
22787;DHT22;63134;52.020;4.714;2022-09-27T03:48:41;11.00;92.70
22787;DHT22;63134;52.020;4.714;2022-09-27T03:51:27;11.10;92.80
22787;DHT22;63134;52.020;4.714;2022-09-27T03:54:12;11.10;92.70
22787;DHT22;63134;52.020;4.714;2022-09-27T03:56:57;11.10;92.80
22787;DHT22;63134;52.020;4.714;2022-09-27T03:59:44;11.00;92.90
22787;DHT22;63134;52.020;4.714;2022-09-27T04:02:56;11.00;93.00
22787;DHT22;63134;52.020;4.714;2022-09-27T04:05:41;11.00;93.30
22787;DHT22;63134;52.020;4.714;2022-09-27T04:08:34;11.00;93.30
22787;DHT22;63134;52.020;4.714;2022-09-27T04:11:22;11.00;93.30
22787;DHT22;63134;52.020;4.714;2022-09-27T04:14:08;11.00;93.40
22787;DHT22;63134;52.020;4.714;2022-09-27T04:17:04;11.00;93.40
22787;DHT22;63134;52.020;4.714;2022-09-27T04:20:10;10.90;93.20
22787;DHT22;63134;52.020;4.714;2022-09-27T04:22:58;10.90;93.20
22787;DHT22;63134;52.020;4.714;2022-09-27T04:25:43;10.80;93.30
22787;DHT22;63134;52.020;4.714;2022-09-27T04:28:37;10.80;93.40
22787;DHT22;63134;52.020;4.714;2022-09-27T04:31:22;10.70;93.20
22787;DHT22;63134;52.020;4.714;2022-09-27T04:34:22;10.60;93.20
22787;DHT22;63134;52.020;4.714;2022-09-27T04:37:31;10.50;93.40
22787;DHT22;63134;52.020;4.714;2022-09-27T04:40:21;10.50;93.60
22787;DHT22;63134;52.020;4.714;2022-09-27T04:43:07;10.50;93.80
22787;DHT22;63134;52.020;4.714;2022-09-27T04:45:54;10.50;94.00
22787;DHT22;63134;52.020;4.714;2022-09-27T04:48:39;10.50;94.20
22787;DHT22;63134;52.020;4.714;2022-09-27T04:51:25;10.50;94.30
22787;DHT22;63134;52.020;4.714;2022-09-27T04:54:11;10.60;94.50
22787;DHT22;63134;52.020;4.714;2022-09-27T04:57:05;10.60;94.80
22787;DHT22;63134;52.020;4.714;2022-09-27T04:59:53;10.70;94.80
22787;DHT22;63134;52.020;4.714;2022-09-27T05:02:39;10.70;94.80
22787;DHT22;63134;52.020;4.714;2022-09-27T05:05:34;10.70;95.00
22787;DHT22;63134;52.020;4.714;2022-09-27T05:08:19;10.70;95.00
22787;DHT22;63134;52.020;4.714;2022-09-27T05:11:25;10.80;95.00
22787;DHT22;63134;52.020;4.714;2022-09-27T05:14:30;10.80;95.10
22787;DHT22;63134;52.020;4.714;2022-09-27T05:17:25;10.80;95.20
22787;DHT22;63134;52.020;4.714;2022-09-27T05:20:37;10.90;95.30
22787;DHT22;63134;52.020;4.714;2022-09-27T05:23:32;10.90;95.20
22787;DHT22;63134;52.020;4.714;2022-09-27T05:26:17;11.00;95.40
22787;DHT22;63134;52.020;4.714;2022-09-27T05:29:03;11.00;95.40
22787;DHT22;63134;52.020;4.714;2022-09-27T05:31:48;11.00;95.40
22787;DHT22;63134;52.020;4.714;2022-09-27T05:34:34;11.00;95.50
22787;DHT22;63134;52.020;4.714;2022-09-27T05:37:20;11.10;95.60
22787;DHT22;63134;52.020;4.714;2022-09-27T05:40:06;11.10;95.50
22787;DHT22;63134;52.020;4.714;2022-09-27T05:43:15;11.00;95.30
22787;DHT22;63134;52.020;4.714;2022-09-27T05:46:02;11.00;95.20
22787;DHT22;63134;52.020;4.714;2022-09-27T05:48:50;11.00;95.30
22787;DHT22;63134;52.020;4.714;2022-09-27T05:51:35;11.00;95.30
22787;DHT22;63134;52.020;4.714;2022-09-27T05:54:22;11.00;95.30
22787;DHT22;63134;52.020;4.714;2022-09-27T05:57:07;11.00;95.30
22787;DHT22;63134;52.020;4.714;2022-09-27T06:00:01;11.10;95.40
22787;DHT22;63134;52.020;4.714;2022-09-27T06:03:01;11.10;95.40
22787;DHT22;63134;52.020;4.714;2022-09-27T06:06:06;11.10;95.30
22787;DHT22;63134;52.020;4.714;2022-09-27T06:08:59;11.10;95.40
22787;DHT22;63134;52.020;4.714;2022-09-27T06:11:46;11.10;95.30
22787;DHT22;63134;52.020;4.714;2022-09-27T06:14:33;11.10;95.30
22787;DHT22;63134;52.020;4.714;2022-09-27T06:17:42;11.10;95.40
22787;DHT22;63134;52.020;4.714;2022-09-27T06:20:34;11.10;95.40
22787;DHT22;63134;52.020;4.714;2022-09-27T06:23:22;11.10;95.40
22787;DHT22;63134;52.020;4.714;2022-09-27T06:26:08;11.10;95.30
22787;DHT22;63134;52.020;4.714;2022-09-27T06:29:40;11.10;95.40
22787;DHT22;63134;52.020;4.714;2022-09-27T06:32:35;11.10;95.50
22787;DHT22;63134;52.020;4.714;2022-09-27T06:35:46;11.10;95.50
22787;DHT22;63134;52.020;4.714;2022-09-27T06:38:34;11.20;95.70
22787;DHT22;63134;52.020;4.714;2022-09-27T06:41:29;11.20;95.80
22787;DHT22;63134;52.020;4.714;2022-09-27T06:44:28;11.30;95.90
22787;DHT22;63134;52.020;4.714;2022-09-27T06:47:45;11.30;96.00
22787;DHT22;63134;52.020;4.714;2022-09-27T06:50:49;11.40;96.10
22787;DHT22;63134;52.020;4.714;2022-09-27T06:53:36;11.50;96.10
22787;DHT22;63134;52.020;4.714;2022-09-27T06:56:25;11.50;96.20
22787;DHT22;63134;52.020;4.714;2022-09-27T06:59:13;11.60;96.10
22787;DHT22;63134;52.020;4.714;2022-09-27T07:02:37;11.60;96.10
22787;DHT22;63134;52.020;4.714;2022-09-27T07:05:54;11.70;96.20
22787;DHT22;63134;52.020;4.714;2022-09-27T07:08:59;11.70;96.20
22787;DHT22;63134;52.020;4.714;2022-09-27T07:11:45;11.70;96.00
22787;DHT22;63134;52.020;4.714;2022-09-27T07:14:31;11.80;96.00
22787;DHT22;63134;52.020;4.714;2022-09-27T07:17:19;11.70;95.90
22787;DHT22;63134;52.020;4.714;2022-09-27T07:20:07;11.70;95.70
22787;DHT22;63134;52.020;4.714;2022-09-27T07:22:52;11.70;95.40
22787;DHT22;63134;52.020;4.714;2022-09-27T07:25:38;11.60;95.00
22787;DHT22;63134;52.020;4.714;2022-09-27T07:28:25;11.60;95.10
22787;DHT22;63134;52.020;4.714;2022-09-27T07:31:11;11.40;94.50
22787;DHT22;63134;52.020;4.714;2022-09-27T07:33:58;11.30;94.70
22787;DHT22;63134;52.020;4.714;2022-09-27T07:36:43;11.30;95.00
22787;DHT22;63134;52.020;4.714;2022-09-27T07:39:32;11.20;95.20
22787;DHT22;63134;52.020;4.714;2022-09-27T07:42:19;11.20;95.50
22787;DHT22;63134;52.020;4.714;2022-09-27T07:45:09;11.30;95.60
22787;DHT22;63134;52.020;4.714;2022-09-27T07:48:23;11.30;95.60
22787;DHT22;63134;52.020;4.714;2022-09-27T07:51:28;11.20;95.60
22787;DHT22;63134;52.020;4.714;2022-09-27T07:54:23;11.20;95.50
22787;DHT22;63134;52.020;4.714;2022-09-27T07:57:31;11.20;95.80
22787;DHT22;63134;52.020;4.714;2022-09-27T08:00:18;11.30;96.00
22787;DHT22;63134;52.020;4.714;2022-09-27T08:03:06;11.40;96.00
22787;DHT22;63134;52.020;4.714;2022-09-27T08:05:52;11.40;95.90
22787;DHT22;63134;52.020;4.714;2022-09-27T08:08:38;11.50;95.80
22787;DHT22;63134;52.020;4.714;2022-09-27T08:11:23;11.50;96.10
22787;DHT22;63134;52.020;4.714;2022-09-27T08:14:09;11.50;96.00
22787;DHT22;63134;52.020;4.714;2022-09-27T08:16:56;11.70;96.10
22787;DHT22;63134;52.020;4.714;2022-09-27T08:19:48;11.70;96.30
22787;DHT22;63134;52.020;4.714;2022-09-27T08:22:53;11.90;96.70
22787;DHT22;63134;52.020;4.714;2022-09-27T08:25:52;12.00;96.60
22787;DHT22;63134;52.020;4.714;2022-09-27T08:28:47;12.10;96.30
22787;DHT22;63134;52.020;4.714;2022-09-27T08:31:40;12.20;96.30
22787;DHT22;63134;52.020;4.714;2022-09-27T08:34:25;12.20;96.00
22787;DHT22;63134;52.020;4.714;2022-09-27T08:37:13;12.00;95.30
22787;DHT22;63134;52.020;4.714;2022-09-27T08:39:59;12.00;95.40
22787;DHT22;63134;52.020;4.714;2022-09-27T08:42:55;12.00;95.30
22787;DHT22;63134;52.020;4.714;2022-09-27T08:46:06;11.90;95.30
22787;DHT22;63134;52.020;4.714;2022-09-27T08:49:18;11.90;95.20
22787;DHT22;63134;52.020;4.714;2022-09-27T08:52:08;11.80;95.00
22787;DHT22;63134;52.020;4.714;2022-09-27T08:55:02;11.90;95.30
22787;DHT22;63134;52.020;4.714;2022-09-27T08:57:53;11.90;95.20
22787;DHT22;63134;52.020;4.714;2022-09-27T09:00:40;11.90;95.30
22787;DHT22;63134;52.020;4.714;2022-09-27T09:03:29;11.90;95.20
22787;DHT22;63134;52.020;4.714;2022-09-27T09:06:25;11.90;95.30
22787;DHT22;63134;52.020;4.714;2022-09-27T09:09:45;12.00;95.30
22787;DHT22;63134;52.020;4.714;2022-09-27T09:12:48;12.00;95.30
22787;DHT22;63134;52.020;4.714;2022-09-27T09:16:10;11.90;95.20
22787;DHT22;63134;52.020;4.714;2022-09-27T09:19:20;12.00;95.30
22787;DHT22;63134;52.020;4.714;2022-09-27T09:22:28;12.10;95.70
22787;DHT22;63134;52.020;4.714;2022-09-27T09:25:27;12.30;95.80
22787;DHT22;63134;52.020;4.714;2022-09-27T09:31:37;12.50;95.60
22787;DHT22;63134;52.020;4.714;2022-09-27T09:34:36;12.60;95.50
22787;DHT22;63134;52.020;4.714;2022-09-27T09:37:44;12.70;95.50
22787;DHT22;63134;52.020;4.714;2022-09-27T09:40:39;12.80;95.20
22787;DHT22;63134;52.020;4.714;2022-09-27T09:43:34;12.80;95.10
22787;DHT22;63134;52.020;4.714;2022-09-27T09:46:38;12.80;94.90
22787;DHT22;63134;52.020;4.714;2022-09-27T09:49:41;12.90;95.00
22787;DHT22;63134;52.020;4.714;2022-09-27T09:52:38;12.90;95.00
22787;DHT22;63134;52.020;4.714;2022-09-27T09:55:32;12.90;94.60
22787;DHT22;63134;52.020;4.714;2022-09-27T09:58:26;12.80;94.30
22787;DHT22;63134;52.020;4.714;2022-09-27T10:01:22;12.80;94.70
22787;DHT22;63134;52.020;4.714;2022-09-27T10:04:17;12.80;94.30
22787;DHT22;63134;52.020;4.714;2022-09-27T10:07:03;12.70;94.00
22787;DHT22;63134;52.020;4.714;2022-09-27T10:09:55;12.60;94.20
22787;DHT22;63134;52.020;4.714;2022-09-27T10:13:02;12.50;94.20
22787;DHT22;63134;52.020;4.714;2022-09-27T10:16:02;12.30;93.90
22787;DHT22;63134;52.020;4.714;2022-09-27T10:18:53;12.20;93.90
22787;DHT22;63134;52.020;4.714;2022-09-27T10:21:43;12.10;93.70
22787;DHT22;63134;52.020;4.714;2022-09-27T10:24:55;12.00;93.60
22787;DHT22;63134;52.020;4.714;2022-09-27T10:28:02;11.80;93.70
22787;DHT22;63134;52.020;4.714;2022-09-27T10:30:55;11.80;93.90
22787;DHT22;63134;52.020;4.714;2022-09-27T10:33:53;11.60;93.80
22787;DHT22;63134;52.020;4.714;2022-09-27T10:36:41;11.50;93.90
22787;DHT22;63134;52.020;4.714;2022-09-27T10:39:27;11.50;94.40
22787;DHT22;63134;52.020;4.714;2022-09-27T10:42:33;11.40;94.60
22787;DHT22;63134;52.020;4.714;2022-09-27T10:45:30;11.40;95.10
22787;DHT22;63134;52.020;4.714;2022-09-27T10:48:28;11.40;95.20
22787;DHT22;63134;52.020;4.714;2022-09-27T10:51:23;11.40;95.40
22787;DHT22;63134;52.020;4.714;2022-09-27T10:54:39;11.30;95.10
22787;DHT22;63134;52.020;4.714;2022-09-27T10:57:30;11.20;95.10
22787;DHT22;63134;52.020;4.714;2022-09-27T11:00:32;11.10;95.30
22787;DHT22;63134;52.020;4.714;2022-09-27T11:03:19;11.10;95.70
22787;DHT22;63134;52.020;4.714;2022-09-27T11:09:17;11.00;95.70
22787;DHT22;63134;52.020;4.714;2022-09-27T11:12:12;11.00;95.90
22787;DHT22;63134;52.020;4.714;2022-09-27T11:15:03;11.10;96.70
22787;DHT22;63134;52.020;4.714;2022-09-27T11:20:50;11.50;97.30
22787;DHT22;63134;52.020;4.714;2022-09-27T11:24:22;11.50;96.60
22787;DHT22;63134;52.020;4.714;2022-09-27T11:30:22;11.40;96.00
22787;DHT22;63134;52.020;4.714;2022-09-27T11:42:54;11.70;96.30
22787;DHT22;63134;52.020;4.714;2022-09-27T11:46:37;11.90;96.50
22787;DHT22;63134;52.020;4.714;2022-09-27T11:53:23;12.30;96.20
22787;DHT22;63134;52.020;4.714;2022-09-27T12:11:17;13.20;94.60
22787;DHT22;63134;52.020;4.714;2022-09-27T12:14:28;13.30;94.40
22787;DHT22;63134;52.020;4.714;2022-09-27T12:17:22;13.40;94.70
22787;DHT22;63134;52.020;4.714;2022-09-27T12:20:24;13.50;94.30
22787;DHT22;63134;52.020;4.714;2022-09-27T12:23:28;13.60;93.70
22787;DHT22;63134;52.020;4.714;2022-09-27T12:26:42;13.70;93.60
22787;DHT22;63134;52.020;4.714;2022-09-27T12:29:31;14.00;94.30
22787;DHT22;63134;52.020;4.714;2022-09-27T12:32:33;14.40;94.90
22787;DHT22;63134;52.020;4.714;2022-09-27T12:35:28;14.50;92.90
22787;DHT22;63134;52.020;4.714;2022-09-27T12:38:18;14.60;92.80
22787;DHT22;63134;52.020;4.714;2022-09-27T12:41:07;15.30;94.40
22787;DHT22;63134;52.020;4.714;2022-09-27T12:44:09;15.80;93.60
22787;DHT22;63134;52.020;4.714;2022-09-27T12:47:19;16.70;92.60
22787;DHT22;63134;52.020;4.714;2022-09-27T13:00:22;20.60;83.80
22787;DHT22;63134;52.020;4.714;2022-09-27T13:06:47;19.10;76.80
22787;DHT22;63134;52.020;4.714;2022-09-27T13:10:09;18.40;76.40
22787;DHT22;63134;52.020;4.714;2022-09-27T13:12:59;17.70;76.90
22787;DHT22;63134;52.020;4.714;2022-09-27T13:15:46;17.20;77.70
22787;DHT22;63134;52.020;4.714;2022-09-27T13:24:50;16.50;77.30
22787;DHT22;63134;52.020;4.714;2022-09-27T13:32:00;15.80;77.90
22787;DHT22;63134;52.020;4.714;2022-09-27T13:34:39;15.20;74.90
22787;DHT22;63134;52.020;4.714;2022-09-27T13:37:59;15.10;77.50
22787;DHT22;63134;52.020;4.714;2022-09-27T13:40:49;15.20;78.30
22787;DHT22;63134;52.020;4.714;2022-09-27T13:50:50;15.30;78.00
22787;DHT22;63134;52.020;4.714;2022-09-27T13:53:39;15.40;78.20
22787;DHT22;63134;52.020;4.714;2022-09-27T13:59:44;15.50;78.10
22787;DHT22;63134;52.020;4.714;2022-09-27T14:06:06;15.70;76.10
22787;DHT22;63134;52.020;4.714;2022-09-27T14:09:04;15.70;73.90
22787;DHT22;63134;52.020;4.714;2022-09-27T14:12:49;15.90;74.20
22787;DHT22;63134;52.020;4.714;2022-09-27T14:15:22;16.10;72.50
22787;DHT22;63134;52.020;4.714;2022-09-27T14:18:11;16.30;73.20
22787;DHT22;63134;52.020;4.714;2022-09-27T14:21:26;16.50;70.60
22787;DHT22;63134;52.020;4.714;2022-09-27T14:27:39;17.00;68.20
22787;DHT22;63134;52.020;4.714;2022-09-27T14:30:47;17.00;68.80
22787;DHT22;63134;52.020;4.714;2022-09-27T14:34:06;16.90;66.30
22787;DHT22;63134;52.020;4.714;2022-09-27T14:36:55;16.60;65.40
22787;DHT22;63134;52.020;4.714;2022-09-27T14:40:22;16.30;65.10
22787;DHT22;63134;52.020;4.714;2022-09-27T14:43:16;16.00;65.90
22787;DHT22;63134;52.020;4.714;2022-09-27T14:46:05;15.80;66.60
22787;DHT22;63134;52.020;4.714;2022-09-27T14:48:51;15.40;65.70
22787;DHT22;63134;52.020;4.714;2022-09-27T14:51:37;15.30;66.30
22787;DHT22;63134;52.020;4.714;2022-09-27T14:54:28;15.10;66.70
22787;DHT22;63134;52.020;4.714;2022-09-27T14:57:14;14.90;67.50
22787;DHT22;63134;52.020;4.714;2022-09-27T15:00:23;14.80;68.00
22787;DHT22;63134;52.020;4.714;2022-09-27T15:03:27;14.50;69.10
22787;DHT22;63134;52.020;4.714;2022-09-27T15:06:20;14.20;70.40
22787;DHT22;63134;52.020;4.714;2022-09-27T15:09:15;13.80;72.90
22787;DHT22;63134;52.020;4.714;2022-09-27T15:12:03;13.70;74.60
22787;DHT22;63134;52.020;4.714;2022-09-27T15:14:49;13.50;75.90
22787;DHT22;63134;52.020;4.714;2022-09-27T15:17:45;13.40;77.20
22787;DHT22;63134;52.020;4.714;2022-09-27T15:20:34;13.20;78.40
22787;DHT22;63134;52.020;4.714;2022-09-27T15:23:28;13.00;79.40
22787;DHT22;63134;52.020;4.714;2022-09-27T15:26:23;12.90;80.10
22787;DHT22;63134;52.020;4.714;2022-09-27T15:29:19;12.80;81.40
22787;DHT22;63134;52.020;4.714;2022-09-27T15:32:06;12.70;82.90
22787;DHT22;63134;52.020;4.714;2022-09-27T15:34:52;12.80;83.40
22787;DHT22;63134;52.020;4.714;2022-09-27T15:37:39;12.90;83.90
22787;DHT22;63134;52.020;4.714;2022-09-27T15:43:48;12.90;83.60
22787;DHT22;63134;52.020;4.714;2022-09-27T15:46:40;13.00;84.00
22787;DHT22;63134;52.020;4.714;2022-09-27T15:49:30;13.00;83.90
22787;DHT22;63134;52.020;4.714;2022-09-27T15:52:44;12.90;84.00
22787;DHT22;63134;52.020;4.714;2022-09-27T15:55:34;12.80;84.30
22787;DHT22;63134;52.020;4.714;2022-09-27T15:58:20;12.80;84.70
22787;DHT22;63134;52.020;4.714;2022-09-27T16:01:06;12.70;85.10
22787;DHT22;63134;52.020;4.714;2022-09-27T16:03:51;12.70;85.50
22787;DHT22;63134;52.020;4.714;2022-09-27T16:06:37;12.70;85.70
22787;DHT22;63134;52.020;4.714;2022-09-27T16:09:22;12.70;86.10
22787;DHT22;63134;52.020;4.714;2022-09-27T16:12:08;12.70;86.40
22787;DHT22;63134;52.020;4.714;2022-09-27T16:14:56;12.60;86.60
22787;DHT22;63134;52.020;4.714;2022-09-27T16:17:41;12.50;86.80
22787;DHT22;63134;52.020;4.714;2022-09-27T16:20:27;12.50;87.00
22787;DHT22;63134;52.020;4.714;2022-09-27T16:23:13;12.50;87.10
22787;DHT22;63134;52.020;4.714;2022-09-27T16:25:58;12.50;87.40
22787;DHT22;63134;52.020;4.714;2022-09-27T16:28:43;12.40;87.90
22787;DHT22;63134;52.020;4.714;2022-09-27T16:31:29;12.40;88.10
22787;DHT22;63134;52.020;4.714;2022-09-27T16:34:15;12.40;88.30
22787;DHT22;63134;52.020;4.714;2022-09-27T16:37:00;12.30;88.50
22787;DHT22;63134;52.020;4.714;2022-09-27T16:39:49;12.30;88.70
22787;DHT22;63134;52.020;4.714;2022-09-27T16:42:40;12.30;89.40
22787;DHT22;63134;52.020;4.714;2022-09-27T16:45:27;12.30;90.00
22787;DHT22;63134;52.020;4.714;2022-09-27T16:48:17;12.20;90.30
22787;DHT22;63134;52.020;4.714;2022-09-27T16:51:19;12.20;90.40
22787;DHT22;63134;52.020;4.714;2022-09-27T16:54:24;12.20;90.50
22787;DHT22;63134;52.020;4.714;2022-09-27T16:57:12;12.10;90.90
22787;DHT22;63134;52.020;4.714;2022-09-27T17:00:00;12.10;90.80
22787;DHT22;63134;52.020;4.714;2022-09-27T17:02:46;12.00;90.70
22787;DHT22;63134;52.020;4.714;2022-09-27T17:05:32;12.00;90.70
22787;DHT22;63134;52.020;4.714;2022-09-27T17:08:18;11.90;90.80
22787;DHT22;63134;52.020;4.714;2022-09-27T17:11:03;11.90;91.00
22787;DHT22;63134;52.020;4.714;2022-09-27T17:13:53;11.80;90.90
22787;DHT22;63134;52.020;4.714;2022-09-27T17:16:39;11.70;91.00
22787;DHT22;63134;52.020;4.714;2022-09-27T17:19:24;11.70;91.10
22787;DHT22;63134;52.020;4.714;2022-09-27T17:22:10;11.60;91.10
22787;DHT22;63134;52.020;4.714;2022-09-27T17:24:56;11.60;91.30
22787;DHT22;63134;52.020;4.714;2022-09-27T17:27:41;11.50;91.30
22787;DHT22;63134;52.020;4.714;2022-09-27T17:30:27;11.50;91.50
22787;DHT22;63134;52.020;4.714;2022-09-27T17:33:15;11.50;91.60
22787;DHT22;63134;52.020;4.714;2022-09-27T17:36:01;11.50;91.80
22787;DHT22;63134;52.020;4.714;2022-09-27T17:38:48;11.40;91.80
22787;DHT22;63134;52.020;4.714;2022-09-27T17:41:34;11.40;92.00
22787;DHT22;63134;52.020;4.714;2022-09-27T17:44:24;11.40;92.10
22787;DHT22;63134;52.020;4.714;2022-09-27T17:47:10;11.40;92.30
22787;DHT22;63134;52.020;4.714;2022-09-27T17:50:15;11.40;92.60
22787;DHT22;63134;52.020;4.714;2022-09-27T17:53:08;11.40;92.70
22787;DHT22;63134;52.020;4.714;2022-09-27T17:56:00;11.40;92.80
22787;DHT22;63134;52.020;4.714;2022-09-27T17:58:46;11.40;92.90
22787;DHT22;63134;52.020;4.714;2022-09-27T18:01:32;11.30;93.00
22787;DHT22;63134;52.020;4.714;2022-09-27T18:04:17;11.40;93.30
22787;DHT22;63134;52.020;4.714;2022-09-27T18:07:06;11.40;93.40
22787;DHT22;63134;52.020;4.714;2022-09-27T18:09:57;11.40;93.40
22787;DHT22;63134;52.020;4.714;2022-09-27T18:12:42;11.50;93.60
22787;DHT22;63134;52.020;4.714;2022-09-27T18:15:28;11.40;93.60
22787;DHT22;63134;52.020;4.714;2022-09-27T18:18:13;11.40;93.70
22787;DHT22;63134;52.020;4.714;2022-09-27T18:21:10;11.40;94.00
22787;DHT22;63134;52.020;4.714;2022-09-27T18:23:59;11.40;93.70
22787;DHT22;63134;52.020;4.714;2022-09-27T18:26:45;11.40;93.90
22787;DHT22;63134;52.020;4.714;2022-09-27T18:29:33;11.30;93.70
22787;DHT22;63134;52.020;4.714;2022-09-27T18:32:18;11.20;93.90
22787;DHT22;63134;52.020;4.714;2022-09-27T18:35:04;11.10;94.30
22787;DHT22;63134;52.020;4.714;2022-09-27T18:37:50;11.10;94.60
22787;DHT22;63134;52.020;4.714;2022-09-27T18:40:36;11.10;95.10
22787;DHT22;63134;52.020;4.714;2022-09-27T18:43:41;11.10;95.40
22787;DHT22;63134;52.020;4.714;2022-09-27T18:46:33;11.10;95.70
22787;DHT22;63134;52.020;4.714;2022-09-27T18:49:20;11.10;95.90
22787;DHT22;63134;52.020;4.714;2022-09-27T18:52:12;11.00;95.80
22787;DHT22;63134;52.020;4.714;2022-09-27T18:54:57;11.00;95.90
22787;DHT22;63134;52.020;4.714;2022-09-27T18:57:43;10.90;96.10
22787;DHT22;63134;52.020;4.714;2022-09-27T19:00:28;11.00;96.40
22787;DHT22;63134;52.020;4.714;2022-09-27T19:03:15;11.00;96.40
22787;DHT22;63134;52.020;4.714;2022-09-27T19:06:04;11.00;96.60
22787;DHT22;63134;52.020;4.714;2022-09-27T19:08:53;11.00;96.60
22787;DHT22;63134;52.020;4.714;2022-09-27T19:11:42;11.00;96.50
22787;DHT22;63134;52.020;4.714;2022-09-27T19:14:30;11.00;96.60
22787;DHT22;63134;52.020;4.714;2022-09-27T19:17:16;11.00;96.60
22787;DHT22;63134;52.020;4.714;2022-09-27T19:20:01;11.00;96.60
22787;DHT22;63134;52.020;4.714;2022-09-27T19:22:48;11.00;96.50
22787;DHT22;63134;52.020;4.714;2022-09-27T19:25:38;11.00;96.40
22787;DHT22;63134;52.020;4.714;2022-09-27T19:28:27;11.00;96.70
22787;DHT22;63134;52.020;4.714;2022-09-27T19:31:18;10.90;96.50
22787;DHT22;63134;52.020;4.714;2022-09-27T19:34:04;10.90;96.30
22787;DHT22;63134;52.020;4.714;2022-09-27T19:36:50;10.80;96.30
22787;DHT22;63134;52.020;4.714;2022-09-27T19:39:35;10.80;96.30
22787;DHT22;63134;52.020;4.714;2022-09-27T19:42:21;10.70;96.30
22787;DHT22;63134;52.020;4.714;2022-09-27T19:45:07;10.70;96.30
22787;DHT22;63134;52.020;4.714;2022-09-27T19:47:56;10.70;96.40
22787;DHT22;63134;52.020;4.714;2022-09-27T19:50:41;10.60;96.50
22787;DHT22;63134;52.020;4.714;2022-09-27T19:53:31;10.60;96.50
22787;DHT22;63134;52.020;4.714;2022-09-27T19:56:18;10.60;96.70
22787;DHT22;63134;52.020;4.714;2022-09-27T19:59:06;10.60;96.70
22787;DHT22;63134;52.020;4.714;2022-09-27T20:01:51;10.60;96.80
22787;DHT22;63134;52.020;4.714;2022-09-27T20:04:37;10.60;96.90
22787;DHT22;63134;52.020;4.714;2022-09-27T20:07:23;10.60;97.00